Time;durP1;ratioP1;P1;durP2;ratioP2;P2;SDS_P1;SDS_P2;PMS_P1;PMS_P2;Temp;Humidity;BMP_temperature;BMP_pressure;BME280_temperature;BME280_humidity;BME280_pressure;Samples;Min_cycle;Max_cycle;Signal;HPM_P1;HPM_P2
2021/10/01 00:00:54;;;;;;;1;0.9;;;;;;;;;;;;;
2021/10/01 00:03:19;;;;;;;1.2;1;;;;;;;;;;;;;
2021/10/01 00:05:45;;;;;;;1.1;0.9;;;;;;;;;;;;;
2021/10/01 00:08:10;;;;;;;1.3;0.9;;;;;;;;;;;;;
2021/10/01 00:10:35;;;;;;;2.7;1;;;;;;;;;;;;;
2021/10/01 00:13:01;;;;;;;3.2;1;;;;;;;;;;;;;
2021/10/01 00:15:27;;;;;;;1.3;0.8;;;;;;;;;;;;;
2021/10/01 00:17:51;;;;;;;2.5;1.1;;;;;;;;;;;;;
2021/10/01 00:20:17;;;;;;;1.5;0.8;;;;;;;;;;;;;
2021/10/01 00:22:42;;;;;;;3.5;1;;;;;;;;;;;;;
2021/10/01 00:25:08;;;;;;;1.2;1.1;;;;;;;;;;;;;
2021/10/01 00:27:49;;;;;;;1.2;1.1;;;;;;;;;;;;;
2021/10/01 00:30:14;;;;;;;1.2;1.1;;;;;;;;;;;;;
2021/10/01 00:32:39;;;;;;;1;0.9;;;;;;;;;;;;;
2021/10/01 00:35:04;;;;;;;0.9;0.9;;;;;;;;;;;;;
2021/10/01 00:37:29;;;;;;;1.5;0.9;;;;;;;;;;;;;
2021/10/01 00:39:55;;;;;;;1.2;1;;;;;;;;;;;;;
2021/10/01 00:42:20;;;;;;;1.1;1;;;;;;;;;;;;;
2021/10/01 00:44:46;;;;;;;1.1;0.9;;;;;;;;;;;;;
2021/10/01 00:47:10;;;;;;;1;0.9;;;;;;;;;;;;;
2021/10/01 00:49:35;;;;;;;2.1;1.1;;;;;;;;;;;;;
2021/10/01 00:52:01;;;;;;;2.5;1.1;;;;;;;;;;;;;
2021/10/01 00:55:14;;;;;;;2.2;1;;;;;;;;;;;;;
2021/10/01 00:57:21;;;;;;;1.3;1;;;;;;;;;;;;;
2021/10/01 00:59:46;;;;;;;1.3;1.1;;;;;;;;;;;;;
2021/10/01 01:02:11;;;;;;;2.2;1;;;;;;;;;;;;;
2021/10/01 01:04:37;;;;;;;1.2;1;;;;;;;;;;;;;
2021/10/01 01:07:01;;;;;;;1.1;0.9;;;;;;;;;;;;;
2021/10/01 01:09:26;;;;;;;0.8;0.8;;;;;;;;;;;;;
2021/10/01 01:11:51;;;;;;;1.5;1;;;;;;;;;;;;;
2021/10/01 01:14:16;;;;;;;4.3;1.6;;;;;;;;;;;;;
2021/10/01 01:16:41;;;;;;;1.2;1;;;;;;;;;;;;;
2021/10/01 01:19:07;;;;;;;3.3;0.9;;;;;;;;;;;;;
2021/10/01 01:21:32;;;;;;;1.3;1;;;;;;;;;;;;;
2021/10/01 01:23:57;;;;;;;1;0.9;;;;;;;;;;;;;
2021/10/01 01:26:22;;;;;;;0.9;0.9;;;;;;;;;;;;;
2021/10/01 01:28:47;;;;;;;3.2;1;;;;;;;;;;;;;
2021/10/01 01:33:37;;;;;;;1.7;1;;;;;;;;;;;;;
2021/10/01 01:36:02;;;;;;;3;1.4;;;;;;;;;;;;;
2021/10/01 01:38:28;;;;;;;1.6;1;;;;;;;;;;;;;
2021/10/01 01:40:53;;;;;;;2.2;1.2;;;;;;;;;;;;;
2021/10/01 01:43:18;;;;;;;1;0.9;;;;;;;;;;;;;
2021/10/01 01:45:43;;;;;;;1.1;0.9;;;;;;;;;;;;;
2021/10/01 01:48:08;;;;;;;1.9;0.8;;;;;;;;;;;;;
2021/10/01 01:50:33;;;;;;;1.1;1;;;;;;;;;;;;;
2021/10/01 01:52:58;;;;;;;0.9;0.7;;;;;;;;;;;;;
2021/10/01 01:55:23;;;;;;;1.1;1;;;;;;;;;;;;;
2021/10/01 01:57:48;;;;;;;1.5;1;;;;;;;;;;;;;
2021/10/01 02:00:14;;;;;;;1.5;1.2;;;;;;;;;;;;;
2021/10/01 02:02:39;;;;;;;0.8;0.8;;;;;;;;;;;;;
2021/10/01 02:05:04;;;;;;;1.6;1.3;;;;;;;;;;;;;
2021/10/01 02:07:29;;;;;;;1.8;1;;;;;;;;;;;;;
2021/10/01 02:09:54;;;;;;;1.1;0.9;;;;;;;;;;;;;
2021/10/01 02:12:19;;;;;;;0.9;0.9;;;;;;;;;;;;;
2021/10/01 02:14:44;;;;;;;2.1;1;;;;;;;;;;;;;
2021/10/01 02:17:10;;;;;;;1;0.9;;;;;;;;;;;;;
2021/10/01 02:19:35;;;;;;;2.9;1;;;;;;;;;;;;;
2021/10/01 02:22:00;;;;;;;1.5;1.2;;;;;;;;;;;;;
2021/10/01 02:24:28;;;;;;;2;1;;;;;;;;;;;;;
2021/10/01 02:26:50;;;;;;;0.8;0.8;;;;;;;;;;;;;
2021/10/01 02:29:15;;;;;;;3;1;;;;;;;;;;;;;
2021/10/01 02:31:40;;;;;;;1.2;0.9;;;;;;;;;;;;;
2021/10/01 02:34:05;;;;;;;3.1;1.3;;;;;;;;;;;;;
2021/10/01 02:36:30;;;;;;;2.2;1.1;;;;;;;;;;;;;
2021/10/01 02:38:56;;;;;;;2.2;1.2;;;;;;;;;;;;;
2021/10/01 02:41:21;;;;;;;1.8;1.2;;;;;;;;;;;;;
2021/10/01 02:43:46;;;;;;;1.8;1.1;;;;;;;;;;;;;
2021/10/01 02:46:11;;;;;;;1.6;1.1;;;;;;;;;;;;;
2021/10/01 02:48:37;;;;;;;1.6;1;;;;;;;;;;;;;
2021/10/01 02:51:02;;;;;;;2.1;1;;;;;;;;;;;;;
2021/10/01 02:53:27;;;;;;;2.7;1.3;;;;;;;;;;;;;
2021/10/01 02:55:52;;;;;;;1.6;1.1;;;;;;;;;;;;;
2021/10/01 02:58:17;;;;;;;2.9;1.4;;;;;;;;;;;;;
2021/10/01 03:00:42;;;;;;;1.5;1.3;;;;;;;;;;;;;
2021/10/01 03:03:07;;;;;;;1.7;1.2;;;;;;;;;;;;;
2021/10/01 03:05:32;;;;;;;2.5;1.2;;;;;;;;;;;;;
2021/10/01 03:07:57;;;;;;;2.6;1.2;;;;;;;;;;;;;
2021/10/01 03:10:22;;;;;;;1.3;1;;;;;;;;;;;;;
2021/10/01 03:12:47;;;;;;;1.7;1.1;;;;;;;;;;;;;
2021/10/01 03:15:12;;;;;;;2.3;0.9;;;;;;;;;;;;;
2021/10/01 03:17:37;;;;;;;1.6;0.9;;;;;;;;;;;;;
2021/10/01 03:20:03;;;;;;;3.4;1.1;;;;;;;;;;;;;
2021/10/01 03:22:31;;;;;;;1.9;1.1;;;;;;;;;;;;;
2021/10/01 03:24:53;;;;;;;1.1;0.9;;;;;;;;;;;;;
2021/10/01 03:27:19;;;;;;;2.2;1.3;;;;;;;;;;;;;
2021/10/01 03:29:44;;;;;;;1;0.9;;;;;;;;;;;;;
2021/10/01 03:32:09;;;;;;;1.4;0.8;;;;;;;;;;;;;
2021/10/01 03:34:34;;;;;;;1.6;0.9;;;;;;;;;;;;;
2021/10/01 03:36:59;;;;;;;1.1;1;;;;;;;;;;;;;
2021/10/01 03:39:24;;;;;;;1.9;1.2;;;;;;;;;;;;;
2021/10/01 03:41:49;;;;;;;3.6;1.3;;;;;;;;;;;;;
2021/10/01 03:44:21;;;;;;;1.2;1.1;;;;;;;;;;;;;
2021/10/01 03:46:46;;;;;;;3.9;1.3;;;;;;;;;;;;;
2021/10/01 03:49:11;;;;;;;1.7;1.3;;;;;;;;;;;;;
2021/10/01 03:51:36;;;;;;;3.8;1.6;;;;;;;;;;;;;
2021/10/01 03:54:01;;;;;;;8.2;2;;;;;;;;;;;;;
2021/10/01 03:56:27;;;;;;;3.3;1.8;;;;;;;;;;;;;
2021/10/01 03:58:52;;;;;;;2.6;1.5;;;;;;;;;;;;;
2021/10/01 04:02:31;;;;;;;1.7;1.3;;;;;;;6.62;94.77832;944.0705;;;;
2021/10/01 04:04:56;;;;;;;3;1.7;;;;;;;6.67;94.2334;944.0421;;;;
2021/10/01 04:07:22;;;;;;;4;2;;;;;;;6.7;93.62109;944.0109;;;;
2021/10/01 04:09:48;;;;;;;5.6;2.7;;;;;;;6.69;94.15137;944.0296;;;;
2021/10/01 04:12:14;;;;;;;3.6;2.2;;;;;;;6.69;93.94727;943.9726;;;;
2021/10/01 04:14:39;;;;;;;2.9;1.2;;;;;;;6.76;93.46289;944.0229;;;;
2021/10/01 04:17:05;;;;;;;5.5;1.6;;;;;;;6.71;93.4873;944.046;;;;
2021/10/01 04:19:45;;;;;;;1.1;1;;;;;;;6.71;93.29492;944.0355;;;;
2021/10/01 04:22:11;;;;;;;2.2;1;;;;;;;6.61;93.1582;944.0176;;;;
2021/10/01 04:24:36;;;;;;;1.4;1.1;;;;;;;6.59;93.25586;943.8975;;;;
2021/10/01 04:27:04;;;;;;;1.9;1.1;;;;;;;6.59;93.3916;943.8937;;;;
2021/10/01 04:29:29;;;;;;;1.2;0.9;;;;;;;6.52;93.40039;943.8969;;;;
2021/10/01 04:31:55;;;;;;;2;1.3;;;;;;;6.39;94.20996;943.9146;;;;
2021/10/01 04:34:20;;;;;;;3.2;1.1;;;;;;;6.44;94.24023;943.9035;;;;
2021/10/01 04:36:47;;;;;;;1.8;0.9;;;;;;;6.47;94.10352;943.8582;;;;
2021/10/01 04:39:13;;;;;;;1.7;1.2;;;;;;;6.51;93.81738;943.9149;;;;
2021/10/01 04:41:37;;;;;;;3.4;1.8;;;;;;;6.38;94.61328;943.8753;;;;
2021/10/01 04:44:02;;;;;;;5;2.5;;;;;;;6.44;95.10254;943.8056;;;;
2021/10/01 04:46:27;;;;;;;3.9;1.9;;;;;;;6.22;95.73242;943.8722;;;;
2021/10/01 04:48:52;;;;;;;5.3;2.5;;;;;;;6.3;95.60352;943.8386;;;;
2021/10/01 04:51:18;;;;;;;3.2;2.3;;;;;;;6.39;95.36133;943.8392;;;;
2021/10/01 04:53:43;;;;;;;4.7;2.3;;;;;;;6.5;95.50977;943.7989;;;;
2021/10/01 04:56:09;;;;;;;3.6;2.1;;;;;;;6.5;95.0459;943.8209;;;;
2021/10/01 04:58:35;;;;;;;8.1;2.4;;;;;;;6.43;96.09375;943.745;;;;
2021/10/01 05:01:02;;;;;;;3.3;1.9;;;;;;;6.51;95.42188;943.7366;;;;
2021/10/01 05:03:25;;;;;;;3.6;1.9;;;;;;;6.49;95.51758;943.7249;;;;
2021/10/01 05:05:50;;;;;;;3.4;1.5;;;;;;;6.55;95.2959;943.7081;;;;
2021/10/01 05:08:15;;;;;;;2.5;1.5;;;;;;;6.63;94.46289;943.6926;;;;
2021/10/01 05:10:40;;;;;;;1.9;1.4;;;;;;;6.53;94.40918;943.7051;;;;
2021/10/01 05:13:13;;;;;;;1.8;1.4;;;;;;;6.56;94.68652;943.7107;;;;
2021/10/01 05:15:42;;;;;;;3.9;2.1;;;;;;;6.61;94.63086;943.632;;;;
2021/10/01 05:18:05;;;;;;;6.3;2.2;;;;;;;6.63;94.23926;943.6373;;;;
2021/10/01 05:21:46;;;;;;;3.7;1.7;;;;;;;6.49;94.87695;943.6105;;;;
2021/10/01 05:24:14;;;;;;;4;1.4;;;;;;;6.48;94.5332;943.5806;;;;
2021/10/01 05:26:37;;;;;;;5;2.1;;;;;;;6.52;94.27148;943.5497;;;;
2021/10/01 05:29:03;;;;;;;4.5;1.8;;;;;;;6.64;94.04688;943.4792;;;;
2021/10/01 05:31:30;;;;;;;5.6;2.2;;;;;;;6.74;93.3916;943.5492;;;;
2021/10/01 05:33:55;;;;;;;2.2;1.3;;;;;;;6.77;93.3291;943.512;;;;
2021/10/01 05:36:20;;;;;;;3.2;2.2;;;;;;;6.76;93.59863;943.5379;;;;
2021/10/01 05:38:45;;;;;;;4.1;2;;;;;;;6.7;94.26465;943.5399;;;;
2021/10/01 05:41:11;;;;;;;2.6;1.8;;;;;;;6.81;93.81445;943.5081;;;;
2021/10/01 05:43:36;;;;;;;3.6;2.2;;;;;;;6.84;93.57129;943.4917;;;;
2021/10/01 05:46:37;;;;;;;3;2.1;;;;;;;6.8;95.41797;943.5526;;;;
2021/10/01 05:49:01;;;;;;;4;2.2;;;;;;;6.86;95.09277;943.5327;;;;
2021/10/01 05:51:28;;;;;;;7.3;2.8;;;;;;;7.05;94.5791;943.5112;;;;
2021/10/01 05:54:11;;;;;;;9.5;3.8;;;;;;;7.26;93.18848;943.5012;;;;
2021/10/01 05:56:16;;;;;;;6.2;2.8;;;;;;;7.33;92.38574;943.4906;;;;
2021/10/01 05:58:41;;;;;;;4.4;1.8;;;;;;;7.64;90.59375;943.5233;;;;
2021/10/01 06:01:06;;;;;;;4.2;1.8;;;;;;;7.84;88.93164;943.4539;;;;
2021/10/01 06:03:31;;;;;;;3.8;1.8;;;;;;;7.87;88.39648;943.4366;;;;
2021/10/01 06:05:57;;;;;;;3.7;1.9;;;;;;;7.89;88.76172;943.4006;;;;
2021/10/01 06:08:22;;;;;;;5.4;1.7;;;;;;;7.96;88.57227;943.5215;;;;
2021/10/01 06:10:47;;;;;;;4.1;1.5;;;;;;;8.08;87.68848;943.4996;;;;
2021/10/01 06:13:12;;;;;;;2.3;1.1;;;;;;;8.08;88.08594;943.4608;;;;
2021/10/01 06:15:37;;;;;;;4.7;1.6;;;;;;;8.18;89.16406;943.3969;;;;
2021/10/01 06:18:03;;;;;;;3.3;1.3;;;;;;;8.47;89.00586;943.4196;;;;
2021/10/01 06:20:28;;;;;;;1.3;1.2;;;;;;;8.53;88.86035;943.4028;;;;
2021/10/01 06:22:54;;;;;;;5.1;1.9;;;;;;;8.34;89.01367;943.4787;;;;
2021/10/01 06:25:19;;;;;;;3.7;1.6;;;;;;;8.62;88.57227;943.4959;;;;
2021/10/01 06:27:45;;;;;;;5.8;1.7;;;;;;;8.92;86.95117;943.4472;;;;
2021/10/01 06:30:10;;;;;;;8.9;2.4;;;;;;;9.29;85.97656;943.4013;;;;
2021/10/01 06:32:38;;;;;;;4.6;1.8;;;;;;;9.4;85.32813;943.5366;;;;
2021/10/01 06:35:03;;;;;;;4.1;1.8;;;;;;;9.41;84.73828;943.4998;;;;
2021/10/01 06:37:27;;;;;;;3;1.3;;;;;;;9.38;85.24316;943.5313;;;;
2021/10/01 06:39:52;;;;;;;4;1.7;;;;;;;9.58;84.92969;943.5256;;;;
2021/10/01 06:42:19;;;;;;;5.3;1.5;;;;;;;9.65;84.625;943.4838;;;;
2021/10/01 06:45:34;;;;;;;6;1.8;;;;;;;9.64;85.04492;943.4748;;;;
2021/10/01 06:48:12;;;;;;;2.6;1.4;;;;;;;9.85;84.51563;943.4738;;;;
2021/10/01 06:50:47;;;;;;;4.8;1.5;;;;;;;10.05;84.39453;943.502;;;;
2021/10/01 07:22:32;;;;;;;2.8;1.2;;;;;;;11.66;78.30957;943.3822;;;;
2021/10/01 07:34:26;;;;;;;2.5;1.1;;;;;;;12.17;77.52051;943.3016;;;;
2021/10/01 07:36:45;;;;;;;4.1;1.3;;;;;;;12.79;74.0625;943.2792;;;;
2021/10/01 08:19:54;;;;;;;2.2;1.1;;;;;;;21.48;46.80371;942.7303;;;;
2021/10/01 08:22:19;;;;;;;1.2;1;;;;;;;22.18;44.88379;942.7087;;;;
2021/10/01 08:24:44;;;;;;;1;1;;;;;;;23.1;41.99121;942.7195;;;;
2021/10/01 08:27:09;;;;;;;1.7;0.8;;;;;;;22.97;41.23926;942.7094;;;;
2021/10/01 08:29:36;;;;;;;0.9;0.8;;;;;;;21.23;45.98145;942.7206;;;;
2021/10/01 08:32:02;;;;;;;1.4;1;;;;;;;24.46;40.29297;942.579;;;;
2021/10/01 08:34:27;;;;;;;74.4;11.1;;;;;;;23.23;42.36816;942.6016;;;;
2021/10/01 08:36:52;;;;;;;20;5.6;;;;;;;23.64;41.58496;942.5605;;;;
2021/10/01 08:39:21;;;;;;;426.6;80.7;;;;;;;24.62;40.4375;942.5861;;;;
2021/10/01 08:41:44;;;;;;;644.7;126.2;;;;;;;24.55;39.57031;942.5424;;;;
2021/10/01 08:44:10;;;;;;;1496.7;358.7;;;;;;;25.57;38.41992;942.4928;;;;
2021/10/01 08:46:35;;;;;;;1154.5;265;;;;;;;24.95;38.48535;942.5022;;;;
2021/10/01 08:49:01;;;;;;;467;97.2;;;;;;;24.38;40.12207;942.4504;;;;
2021/10/01 08:51:26;;;;;;;443.7;82.4;;;;;;;24.16;40.84375;942.4344;;;;
2021/10/01 08:53:52;;;;;;;402.2;74;;;;;;;23.76;41.80664;942.4442;;;;
2021/10/01 08:56:17;;;;;;;64.2;15.3;;;;;;;23.62;40.81836;942.421;;;;
2021/10/01 08:58:44;;;;;;;137.9;25.5;;;;;;;23.85;40.65039;942.3664;;;;
2021/10/01 09:01:09;;;;;;;79;18.1;;;;;;;24.17;40.30273;942.3233;;;;
2021/10/01 09:03:35;;;;;;;461;84.8;;;;;;;23.42;40.5293;942.2612;;;;
2021/10/01 09:06:00;;;;;;;25.8;5;;;;;;;22.89;42.8877;942.3107;;;;
2021/10/01 09:08:25;;;;;;;20.2;4.5;;;;;;;23.04;42.43262;942.2801;;;;
2021/10/01 09:10:51;;;;;;;21.8;5.2;;;;;;;22.68;42.9043;942.2792;;;;
2021/10/01 09:13:16;;;;;;;3.9;1.1;;;;;;;22.42;43.52344;942.2459;;;;
2021/10/01 09:15:43;;;;;;;1.2;0.7;;;;;;;21.96;42.21289;942.2219;;;;
2021/10/01 09:18:08;;;;;;;0.6;0.6;;;;;;;22.27;43.40332;942.2098;;;;
2021/10/01 09:20:33;;;;;;;1.4;0.7;;;;;;;22.71;41.6377;942.1906;;;;
2021/10/01 09:22:58;;;;;;;0.9;0.8;;;;;;;22.3;43.03027;942.2023;;;;
2021/10/01 09:25:24;;;;;;;0.6;0.6;;;;;;;21.95;43.35938;942.1719;;;;
2021/10/01 09:27:48;;;;;;;1.7;0.7;;;;;;;22.42;43.24219;942.1672;;;;
2021/10/01 09:30:13;;;;;;;0.9;0.7;;;;;;;22.11;43.54004;942.1298;;;;
2021/10/01 09:32:38;;;;;;;0.9;0.9;;;;;;;21.83;43.54785;942.1738;;;;
2021/10/01 09:35:04;;;;;;;1;0.8;;;;;;;21.59;45.0459;942.1805;;;;
2021/10/01 09:37:30;;;;;;;2.6;0.9;;;;;;;21.72;46.07813;942.1099;;;;
2021/10/01 09:39:54;;;;;;;0.8;0.8;;;;;;;21.27;46.3125;942.1336;;;;
2021/10/01 09:42:19;;;;;;;0.8;0.8;;;;;;;20.72;46.18457;942.1685;;;;
2021/10/01 09:44:44;;;;;;;0.9;0.6;;;;;;;20.15;52.07813;942.1428;;;;
2021/10/01 09:47:09;;;;;;;2.8;0.9;;;;;;;20.47;52.09277;942.1365;;;;
2021/10/01 09:49:34;;;;;;;2.5;1;;;;;;;19.81;57.21582;942.1136;;;;
2021/10/01 09:51:59;;;;;;;1.6;0.8;;;;;;;19.05;58.30469;942.0353;;;;
2021/10/01 09:54:24;;;;;;;0.9;0.9;;;;;;;18.84;59.49902;942.0781;;;;
2021/10/01 09:56:49;;;;;;;1;0.9;;;;;;;18.55;59.86719;942.0784;;;;
2021/10/01 09:59:15;;;;;;;1.2;0.9;;;;;;;18.71;59.99316;942.0137;;;;
2021/10/01 10:01:40;;;;;;;1.8;0.9;;;;;;;18.55;59.22852;942.0067;;;;
2021/10/01 10:04:05;;;;;;;1.5;0.7;;;;;;;18.67;58.80176;942.0441;;;;
2021/10/01 10:06:30;;;;;;;1.1;0.8;;;;;;;18.23;57.24316;942.0377;;;;
2021/10/01 10:08:56;;;;;;;1.2;1.1;;;;;;;18.56;59.72949;941.9936;;;;
2021/10/01 10:11:22;;;;;;;1.3;0.9;;;;;;;18.77;57.6875;941.9441;;;;
2021/10/01 10:13:47;;;;;;;1.6;1;;;;;;;19.31;55.74219;941.8808;;;;
2021/10/01 10:16:14;;;;;;;1.4;0.8;;;;;;;19.41;53.93652;941.8668;;;;
2021/10/01 10:18:39;;;;;;;1.3;0.7;;;;;;;18.91;58.27441;941.8195;;;;
2021/10/01 10:21:06;;;;;;;0.8;0.8;;;;;;;19.01;56.28613;941.8178;;;;
2021/10/01 10:23:31;;;;;;;1.5;0.8;;;;;;;18.99;56.35254;941.7971;;;;
2021/10/01 10:25:56;;;;;;;0.8;0.8;;;;;;;18.83;57.19434;941.7715;;;;
2021/10/01 10:28:21;;;;;;;0.7;0.7;;;;;;;19.23;55.33398;941.7742;;;;
2021/10/01 10:30:48;;;;;;;0.7;0.7;;;;;;;18.99;57.2959;941.785;;;;
2021/10/01 10:33:43;;;;;;;0.7;0.7;;;;;;;19.5;54.0293;941.7386;;;;
2021/10/01 10:38:34;;;;;;;0.6;0.6;;;;;;;19.5;55.10156;941.7273;;;;
2021/10/01 10:40:58;;;;;;;1.5;0.8;;;;;;;19.53;55.72266;941.7527;;;;
2021/10/01 10:43:24;;;;;;;1;0.8;;;;;;;19.32;55.62598;941.7208;;;;
2021/10/01 10:45:51;;;;;;;1.2;0.6;;;;;;;19.73;53.31055;941.6983;;;;
2021/10/01 10:48:14;;;;;;;1.1;0.7;;;;;;;19.7;52.47949;941.6221;;;;
2021/10/01 10:50:39;;;;;;;1.1;0.9;;;;;;;19.95;55.53027;941.5825;;;;
2021/10/01 10:53:04;;;;;;;1;0.8;;;;;;;19.72;52.00488;941.4939;;;;
2021/10/01 10:55:29;;;;;;;32.4;1.6;;;;;;;19.86;51.36621;941.5439;;;;
2021/10/01 10:57:54;;;;;;;1.2;0.6;;;;;;;19.82;53.84766;941.5415;;;;
2021/10/01 11:00:46;;;;;;;0.7;0.7;;;;;;;20.02;54.48926;941.581;;;;
2021/10/01 11:03:10;;;;;;;2.3;1;;;;;;;20.34;55.12402;941.5168;;;;
2021/10/01 11:05:35;;;;;;;0.8;0.7;;;;;;;20.07;54.2627;941.4677;;;;
2021/10/01 11:08:50;;;;;;;1.4;1;;;;;;;20.61;51.94629;941.5208;;;;
2021/10/01 11:11:15;;;;;;;1;0.9;;;;;;;21.18;51.06445;941.4606;;;;
2021/10/01 11:13:40;;;;;;;1.2;0.7;;;;;;;20.7;54.1748;941.4163;;;;
2021/10/01 11:16:05;;;;;;;1;0.7;;;;;;;20.76;51.30762;941.3445;;;;
2021/10/01 11:18:30;;;;;;;1.8;0.7;;;;;;;20.86;50.4668;941.355;;;;
2021/10/01 11:20:55;;;;;;;0.7;0.7;;;;;;;21.05;53.64648;941.2889;;;;
2021/10/01 11:23:20;;;;;;;2.2;1;;;;;;;21.44;52.27734;941.251;;;;
2021/10/01 11:25:45;;;;;;;1.5;1;;;;;;;21.88;48.34375;941.1589;;;;
2021/10/01 11:28:12;;;;;;;2.2;0.8;;;;;;;22.13;45.5;941.2004;;;;
2021/10/01 11:30:37;;;;;;;0.9;0.6;;;;;;;22.2;46.58594;941.165;;;;
2021/10/01 11:33:02;;;;;;;1.8;0.9;;;;;;;22.89;44.05078;941.0778;;;;
2021/10/01 11:35:28;;;;;;;0.5;0.5;;;;;;;23.06;44.98438;941.108;;;;
2021/10/01 11:37:54;;;;;;;0.8;0.8;;;;;;;23.32;43.09375;941.1206;;;;
2021/10/01 11:40:19;;;;;;;0.7;0.7;;;;;;;23.05;44.2666;940.9769;;;;
2021/10/01 11:42:45;;;;;;;1.5;0.7;;;;;;;23.45;45.70605;941.0867;;;;
2021/10/01 11:45:10;;;;;;;0.7;0.7;;;;;;;23.03;46.15723;941.0074;;;;
2021/10/01 11:47:35;;;;;;;1.2;0.9;;;;;;;22.81;46.03809;940.8811;;;;
2021/10/01 11:50:01;;;;;;;2.1;0.9;;;;;;;22.99;47.37305;940.9755;;;;
2021/10/01 11:52:26;;;;;;;1.4;0.8;;;;;;;22.54;46.87891;940.918;;;;
2021/10/01 11:54:51;;;;;;;0.8;0.8;;;;;;;22.72;47.4502;940.9286;;;;
2021/10/01 11:57:16;;;;;;;2.2;1.3;;;;;;;23.1;44.96484;940.7946;;;;
2021/10/01 11:59:41;;;;;;;1.9;1.1;;;;;;;23.27;43.98242;940.8624;;;;
2021/10/01 12:02:06;;;;;;;61.9;3.1;;;;;;;23.77;42.30371;940.861;;;;
2021/10/01 12:04:32;;;;;;;0.9;0.7;;;;;;;23.85;43.80469;940.7997;;;;
2021/10/01 12:06:57;;;;;;;1.2;0.9;;;;;;;24.13;43.99707;940.7991;;;;
2021/10/01 12:09:22;;;;;;;3.2;1.2;;;;;;;24.97;41.87402;940.733;;;;
2021/10/01 12:11:47;;;;;;;0.9;0.8;;;;;;;24.74;40.4375;940.6959;;;;
2021/10/01 12:14:12;;;;;;;40.7;2.2;;;;;;;25.55;40.0127;940.6537;;;;
2021/10/01 12:16:39;;;;;;;0.7;0.6;;;;;;;25.8;39.03223;940.663;;;;
2021/10/01 12:19:05;;;;;;;1.3;0.7;;;;;;;26.53;37.62695;940.5935;;;;
2021/10/01 12:21:28;;;;;;;0.6;0.6;;;;;;;27.42;36.07617;940.5785;;;;
2021/10/01 12:23:53;;;;;;;1.7;1;;;;;;;29.5;32.07227;940.5767;;;;
2021/10/01 12:26:18;;;;;;;17.3;3.3;;;;;;;29.71;32.65918;940.5652;;;;
2021/10/01 12:28:44;;;;;;;1039.6;143.9;;;;;;;29.8;31.48438;940.4718;;;;
2021/10/01 12:31:10;;;;;;;54.6;10.1;;;;;;;29.34;32.31055;940.4366;;;;
2021/10/01 12:33:36;;;;;;;327;64.6;;;;;;;30.43;31.08691;940.3499;;;;
2021/10/01 12:36:01;;;;;;;1197.1;243;;;;;;;30.83;31.33008;940.3331;;;;
2021/10/01 12:38:27;;;;;;;757.5;180.9;;;;;;;33.07;27.85742;940.4025;;;;
2021/10/01 12:40:52;;;;;;;924.7;197.6;;;;;;;32.68;28.45703;940.3386;;;;
2021/10/01 12:43:18;;;;;;;356.7;77.6;;;;;;;32;28.24707;940.2827;;;;
2021/10/01 12:45:43;;;;;;;321.2;61.9;;;;;;;33.47;26.7627;940.201;;;;
2021/10/01 12:48:08;;;;;;;461.6;84.8;;;;;;;34.35;24.52539;940.1587;;;;
2021/10/01 12:50:35;;;;;;;54.7;13.6;;;;;;;34.81;23.8877;940.1619;;;;
2021/10/01 12:53:00;;;;;;;347.7;59.2;;;;;;;34.67;24.12109;940.149;;;;
2021/10/01 12:55:25;;;;;;;7.3;3.1;;;;;;;34.38;24.82813;940.1021;;;;
2021/10/01 12:57:50;;;;;;;118.1;22.9;;;;;;;34.46;24.62891;940.1228;;;;
2021/10/01 13:00:16;;;;;;;408.4;73.2;;;;;;;34.57;25.27344;940.0243;;;;
2021/10/01 13:02:41;;;;;;;7.6;3.1;;;;;;;34.99;24.59668;940.0347;;;;
2021/10/01 13:05:05;;;;;;;47.7;8.9;;;;;;;35.1;23.96289;940.0084;;;;
2021/10/01 13:07:30;;;;;;;236.8;33.5;;;;;;;35.38;23.7002;939.9406;;;;
2021/10/01 13:09:56;;;;;;;3.3;1.4;;;;;;;36.76;22.29395;939.9733;;;;
2021/10/01 13:12:22;;;;;;;465.5;69.5;;;;;;;36.15;22.27637;939.9755;;;;
2021/10/01 13:14:47;;;;;;;160;32.1;;;;;;;34.31;24.16309;939.896;;;;
2021/10/01 13:17:12;;;;;;;151.4;35.1;;;;;;;35.55;23.09277;939.8688;;;;
2021/10/01 13:19:37;;;;;;;25.1;8.3;;;;;;;35.61;23.60352;939.8655;;;;
2021/10/01 13:22:04;;;;;;;301.6;50.4;;;;;;;35.27;23.21094;939.7828;;;;
2021/10/01 13:24:29;;;;;;;19.2;5.3;;;;;;;33.88;25.24707;939.7867;;;;
2021/10/01 13:26:53;;;;;;;712.4;116.7;;;;;;;34;25.03613;939.7224;;;;
2021/10/01 13:29:18;;;;;;;5.9;2.1;;;;;;;34.73;24.51074;939.6962;;;;
2021/10/01 13:31:43;;;;;;;130.2;31;;;;;;;35.35;23.91602;939.69;;;;
2021/10/01 13:34:08;;;;;;;389.8;66.1;;;;;;;35.43;23.49707;939.642;;;;
2021/10/01 13:36:34;;;;;;;25.1;6.2;;;;;;;34.96;24.43848;939.6743;;;;
2021/10/01 13:38:59;;;;;;;111.5;22.7;;;;;;;35.79;23.51563;939.6912;;;;
2021/10/01 13:41:24;;;;;;;176.4;35.4;;;;;;;35.66;23.64258;939.6666;;;;
2021/10/01 13:43:49;;;;;;;15.5;4.6;;;;;;;35.85;23.91797;939.649;;;;
2021/10/01 13:46:14;;;;;;;21.8;5.7;;;;;;;34.59;25.12988;939.6277;;;;
2021/10/01 13:48:39;;;;;;;215.1;37.7;;;;;;;34.16;27.06934;939.6153;;;;
2021/10/01 13:51:04;;;;;;;1;1;;;;;;;36.07;24.52246;939.6047;;;;
2021/10/01 13:53:29;;;;;;;77.6;14.8;;;;;;;35.85;23.83301;939.5717;;;;
2021/10/01 13:55:57;;;;;;;11;4;;;;;;;36.09;23.44727;939.4802;;;;
2021/10/01 13:58:22;;;;;;;6.8;2.4;;;;;;;36.78;23.22754;939.478;;;;
2021/10/01 14:00:47;;;;;;;588.5;104.4;;;;;;;37.2;22.35156;939.4512;;;;
2021/10/01 14:03:49;;;;;;;222.3;27.2;;;;;;;37.07;22.37012;939.437;;;;
2021/10/01 14:06:14;;;;;;;1.3;1.2;;;;;;;36.51;23.02051;939.4568;;;;
2021/10/01 14:08:39;;;;;;;2.4;1.4;;;;;;;37.36;22.75977;939.4088;;;;
2021/10/01 14:11:05;;;;;;;1.3;1;;;;;;;37.28;22.2832;939.4166;;;;
2021/10/01 14:13:30;;;;;;;2.7;1.4;;;;;;;36.1;23.82227;939.4631;;;;
2021/10/01 14:15:55;;;;;;;61.7;9.9;;;;;;;36.03;23.40723;939.4426;;;;
2021/10/01 14:18:20;;;;;;;4.9;2.2;;;;;;;34.52;25.12598;939.3585;;;;
2021/10/01 14:20:45;;;;;;;20.3;3.3;;;;;;;33.32;26.91016;939.3831;;;;
2021/10/01 14:23:10;;;;;;;1.7;1;;;;;;;32.85;27.30273;939.4037;;;;
2021/10/01 14:25:35;;;;;;;6.1;1.5;;;;;;;32.81;27.55273;939.4115;;;;
2021/10/01 14:28:00;;;;;;;6;3.2;;;;;;;32.83;27.33789;939.399;;;;
2021/10/01 14:30:28;;;;;;;29.3;7.1;;;;;;;31.74;29.21289;939.37;;;;
2021/10/01 14:32:54;;;;;;;23.7;6.1;;;;;;;31.98;28.91699;939.3597;;;;
2021/10/01 14:35:19;;;;;;;25.9;6.7;;;;;;;31.01;30.76855;939.3689;;;;
2021/10/01 14:37:44;;;;;;;16.7;5.4;;;;;;;31.85;30.22656;939.3775;;;;
2021/10/01 14:40:10;;;;;;;25.6;5.9;;;;;;;31.43;29.8877;939.4059;;;;
2021/10/01 14:42:35;;;;;;;5;2.8;;;;;;;30.67;30.88867;939.3184;;;;
2021/10/01 14:45:00;;;;;;;23.4;6.4;;;;;;;30.77;31.26563;939.3108;;;;
2021/10/01 14:47:30;;;;;;;50.4;10;;;;;;;30.72;30.87988;939.3211;;;;
2021/10/01 14:49:51;;;;;;;2.4;1.7;;;;;;;30.53;31.47559;939.4207;;;;
2021/10/01 14:52:16;;;;;;;5.2;1.7;;;;;;;30.22;31.66895;939.3505;;;;
2021/10/01 14:54:41;;;;;;;5.6;2.7;;;;;;;28.61;34.2334;939.3992;;;;
2021/10/01 14:57:06;;;;;;;7.3;2.7;;;;;;;27.1;36.77344;939.407;;;;
2021/10/01 14:59:31;;;;;;;48.9;9.3;;;;;;;26.27;38.64648;939.2693;;;;
2021/10/01 15:01:56;;;;;;;104.2;21.6;;;;;;;25.37;40.24609;939.3535;;;;
2021/10/01 15:04:21;;;;;;;34;7.1;;;;;;;24.98;41.7334;939.335;;;;
2021/10/01 15:06:46;;;;;;;8.3;2.5;;;;;;;23.95;43.6377;939.353;;;;
2021/10/01 15:09:11;;;;;;;1.3;1.2;;;;;;;23.75;43.81836;939.3215;;;;
2021/10/01 15:11:37;;;;;;;1.9;1.3;;;;;;;23.35;44.79004;939.3046;;;;
2021/10/01 15:14:01;;;;;;;1.8;1.3;;;;;;;23.15;45.61523;939.2494;;;;
2021/10/01 15:16:27;;;;;;;1.8;1.4;;;;;;;23.12;46.59961;939.247;;;;
2021/10/01 15:18:52;;;;;;;2;1.3;;;;;;;22.56;47.42188;939.1308;;;;
2021/10/01 15:21:17;;;;;;;1.7;1.5;;;;;;;22.74;47.42871;939.2285;;;;
2021/10/01 15:23:42;;;;;;;3.2;1.5;;;;;;;22.71;47.13184;939.2517;;;;
2021/10/01 15:26:07;;;;;;;1.7;1.5;;;;;;;22.44;47.81836;939.2308;;;;
2021/10/01 15:28:33;;;;;;;2.8;1.3;;;;;;;22.29;48.22559;939.2534;;;;
2021/10/01 15:30:58;;;;;;;1.8;1.5;;;;;;;22.36;48.4082;939.2756;;;;
2021/10/01 15:33:23;;;;;;;1.9;1.6;;;;;;;22.39;48.08398;939.2274;;;;
2021/10/01 15:35:48;;;;;;;2.9;1.6;;;;;;;22.2;48.2627;939.2385;;;;
2021/10/01 15:38:14;;;;;;;2.6;2;;;;;;;22.05;48.82031;939.1917;;;;
2021/10/01 15:40:39;;;;;;;2.6;1.7;;;;;;;22.02;49.02832;939.1789;;;;
2021/10/01 15:43:04;;;;;;;2;1.8;;;;;;;21.85;49.93457;939.2137;;;;
2021/10/01 15:45:29;;;;;;;2.3;1.7;;;;;;;21.83;49.71094;939.1819;;;;
2021/10/01 15:48:01;;;;;;;2.2;1.5;;;;;;;21.45;50.04199;939.1609;;;;
2021/10/01 15:50:19;;;;;;;2;1.8;;;;;;;21.36;50.59375;939.1847;;;;
2021/10/01 15:52:47;;;;;;;2.7;1.6;;;;;;;21.3;50.82129;939.1969;;;;
2021/10/01 15:55:11;;;;;;;4.4;1.9;;;;;;;21.28;51.25098;939.2033;;;;
2021/10/01 15:57:35;;;;;;;2.5;1.8;;;;;;;21.2;51.2666;939.2593;;;;
2021/10/01 16:00:04;;;;;;;2.1;1.9;;;;;;;21.1;52.03906;939.2793;;;;
2021/10/01 16:02:27;;;;;;;4.7;2.1;;;;;;;20.92;52.72949;939.235;;;;
2021/10/01 16:04:50;;;;;;;2.5;1.9;;;;;;;20.83;52.3916;939.2668;;;;
2021/10/01 16:07:15;;;;;;;3.4;2;;;;;;;20.83;53.91113;939.3283;;;;
2021/10/01 16:09:40;;;;;;;3.7;1.9;;;;;;;20.67;54.52344;939.3066;;;;
2021/10/01 16:12:05;;;;;;;2.5;1.9;;;;;;;20.51;55.57813;939.3154;;;;
2021/10/01 16:14:31;;;;;;;3.1;2.4;;;;;;;20.42;56.89648;939.3347;;;;
2021/10/01 16:16:56;;;;;;;3.4;2.1;;;;;;;20.28;56.8916;939.2871;;;;
2021/10/01 16:19:22;;;;;;;3.4;2.4;;;;;;;20.12;57.08105;939.3264;;;;
2021/10/01 16:21:48;;;;;;;3;2.2;;;;;;;19.84;59.2832;939.4197;;;;
2021/10/01 16:24:11;;;;;;;4.4;1.8;;;;;;;19.5;59.36719;939.4211;;;;
2021/10/01 16:26:45;;;;;;;3;1.8;;;;;;;19.25;60.39258;939.4387;;;;
2021/10/01 16:29:01;;;;;;;6.9;2.3;;;;;;;19.05;62.07715;939.4958;;;;
2021/10/01 16:31:27;;;;;;;4.9;2.6;;;;;;;18.92;62.82715;939.5136;;;;
2021/10/01 16:33:52;;;;;;;6.2;2.4;;;;;;;18.85;62.21191;939.5006;;;;
2021/10/01 16:36:17;;;;;;;4.7;2.7;;;;;;;18.73;62.90527;939.5341;;;;
2021/10/01 16:38:42;;;;;;;3.1;2.2;;;;;;;18.65;63.66113;939.4858;;;;
2021/10/01 16:41:07;;;;;;;4.2;2.5;;;;;;;18.63;63.16992;939.5595;;;;
2021/10/01 16:43:33;;;;;;;6.9;3.4;;;;;;;18.56;63.9502;939.5458;;;;
2021/10/01 16:45:58;;;;;;;9.4;7.3;;;;;;;18.46;65.04102;939.6267;;;;
2021/10/01 16:48:24;;;;;;;6.9;5.7;;;;;;;18.31;65.78418;939.6559;;;;
2021/10/01 16:50:49;;;;;;;8.5;7.4;;;;;;;18.19;66.1377;939.5958;;;;
2021/10/01 16:53:14;;;;;;;17.2;11;;;;;;;18.03;66.71875;939.6677;;;;
2021/10/01 16:55:41;;;;;;;15.6;11.2;;;;;;;17.94;66.93945;939.6156;;;;
2021/10/01 16:58:06;;;;;;;10.8;6.2;;;;;;;17.73;68.18262;939.6381;;;;